Time;durP1;ratioP1;P1;durP2;ratioP2;P2;SDS_P1;SDS_P2;PMS_P1;PMS_P2;Temp;Humidity;BMP_temperature;BMP_pressure;BME280_temperature;BME280_humidity;BME280_pressure;Samples;Min_cycle;Max_cycle;Signal;HPM_P1;HPM_P2
2023/04/02 00:02:20;;;;;;;4.10;1.75;;;;;;;19.82;45.88;100001.16;5053153;28;20056;-51
2023/04/02 00:05:15;;;;;;;5.82;1.60;;;;;;;19.81;45.87;99999.44;5053056;28;20467;-49
2023/04/02 00:07:47;;;;;;;3.58;1.48;;;;;;;19.81;45.93;100003.00;5052881;28;20045;-50
2023/04/02 00:10:49;;;;;;;6.45;1.50;;;;;;;19.81;45.94;100010.19;5054284;28;20049;-50
2023/04/02 00:13:23;;;;;;;5.40;1.90;;;;;;;19.81;45.81;100004.81;5056710;28;20487;-49
2023/04/02 00:15:56;;;;;;;5.22;1.55;;;;;;;19.81;45.88;100002.13;5056927;28;20057;-49
2023/04/02 00:18:25;;;;;;;4.88;1.30;;;;;;;19.80;45.99;100001.28;5056592;28;20052;-51
2023/04/02 00:20:57;;;;;;;3.75;1.90;;;;;;;19.80;45.99;100003.13;5056923;28;20387;-49
2023/04/02 00:23:24;;;;;;;4.70;1.90;;;;;;;19.79;45.95;100009.53;5036503;28;20046;-50
2023/04/02 00:25:51;;;;;;;4.03;1.48;;;;;;;19.80;45.80;100005.81;5036470;28;20475;-48
2023/04/02 00:28:21;;;;;;;3.50;1.58;;;;;;;19.79;45.99;100005.00;5037028;28;20053;-48
2023/04/02 00:30:52;;;;;;;3.85;1.85;;;;;;;19.78;45.60;100008.69;5036557;28;20068;-49
2023/04/02 00:33:23;;;;;;;4.70;1.40;;;;;;;19.79;45.71;100014.88;5036203;28;20052;-48
2023/04/02 00:35:53;;;;;;;3.67;1.40;;;;;;;19.79;45.78;100017.56;5036860;28;20060;-50
2023/04/02 00:38:28;;;;;;;2.92;1.25;;;;;;;19.78;45.65;100005.16;5036568;28;20049;-49
2023/04/02 00:41:00;;;;;;;3.88;1.45;;;;;;;19.78;45.65;100010.53;5036596;28;20073;-49
2023/04/02 00:43:31;;;;;;;3.75;1.60;;;;;;;19.78;45.64;99999.78;5037411;28;20053;-49
2023/04/02 00:46:02;;;;;;;3.58;1.33;;;;;;;19.76;45.67;100008.81;5036357;28;20037;-49
2023/04/02 00:48:30;;;;;;;3.63;1.25;;;;;;;19.77;45.81;100015.06;5036398;28;20056;-48
2023/04/02 00:51:28;;;;;;;3.53;1.98;;;;;;;19.76;45.72;100011.50;5036489;28;20072;-50
2023/04/02 00:54:00;;;;;;;3.70;1.77;;;;;;;19.77;45.68;100012.38;5045592;28;20045;-49
2023/04/02 00:56:32;;;;;;;2.85;1.05;;;;;;;19.74;45.86;100013.50;5056205;28;20056;-50
2023/04/02 00:58:59;;;;;;;3.92;1.67;;;;;;;19.76;45.80;100010.66;5056548;28;20063;-49
2023/04/02 01:01:34;;;;;;;5.43;1.35;;;;;;;19.75;45.84;100009.81;5055808;28;20055;-48
2023/04/02 01:04:04;;;;;;;3.50;1.52;;;;;;;19.74;45.86;100002.78;5054743;28;20060;-51
2023/04/02 01:06:36;;;;;;;2.85;0.95;;;;;;;19.74;45.58;100008.13;5055899;28;20479;-49
2023/04/02 01:09:32;;;;;;;4.25;1.92;;;;;;;19.74;45.77;100001.94;5056217;28;20051;-53
2023/04/02 01:12:28;;;;;;;4.22;1.40;;;;;;;19.74;45.88;100002.78;5053522;28;20395;-51
2023/04/02 01:15:17;;;;;;;3.33;1.20;;;;;;;19.74;45.89;100002.78;5054872;28;20053;-50
2023/04/02 01:18:30;;;;;;;6.13;1.52;;;;;;;19.74;45.85;100008.13;5055685;28;20045;-50
2023/04/02 01:21:27;;;;;;;4.10;1.20;;;;;;;19.73;45.91;99997.56;5053312;28;20056;-50
2023/04/02 01:24:03;;;;;;;4.47;1.65;;;;;;;19.73;45.92;99994.88;5051807;28;20415;-51
2023/04/02 01:27:09;;;;;;;2.95;1.30;;;;;;;19.73;45.85;99994.88;5055328;28;20047;-50
2023/04/02 01:29:40;;;;;;;3.58;1.20;;;;;;;19.73;45.97;99993.03;5054442;28;20399;-49
2023/04/02 01:32:12;;;;;;;3.08;1.30;;;;;;;19.72;45.81;99991.31;5055427;28;20037;-51
2023/04/02 01:34:43;;;;;;;3.17;1.30;;;;;;;19.73;45.90;99995.72;5054365;28;20070;-50
2023/04/02 01:37:21;;;;;;;3.83;1.45;;;;;;;19.72;45.80;99999.38;5054121;28;20124;-49
2023/04/02 01:40:13;;;;;;;2.88;1.05;;;;;;;19.73;45.83;100009.16;5055280;28;20044;-51
2023/04/02 01:42:55;;;;;;;6.07;1.33;;;;;;;19.74;46.03;100009.97;5054050;28;20558;-49
2023/04/02 01:45:23;;;;;;;3.42;1.30;;;;;;;19.73;46.01;100008.31;5055086;28;20049;-48
2023/04/02 01:47:51;;;;;;;4.47;1.25;;;;;;;19.73;45.92;100019.03;5055850;28;20064;-52
2023/04/02 01:50:19;;;;;;;2.78;1.05;;;;;;;19.73;45.85;100019.03;5055227;28;20052;-49
2023/04/02 01:52:49;;;;;;;3.90;1.35;;;;;;;19.72;45.90;100023.53;5054073;28;20055;-50
2023/04/02 01:55:24;;;;;;;4.68;1.30;;;;;;;19.73;46.10;100038.69;5054386;28;20060;-52
2023/04/02 01:57:53;;;;;;;6.57;1.40;;;;;;;19.73;46.21;100044.06;5053267;28;20057;-52
2023/04/02 02:00:21;;;;;;;4.40;0.98;;;;;;;19.73;46.18;100036.00;5053722;28;20053;-48
2023/04/02 02:02:53;;;;;;;5.40;1.70;;;;;;;19.74;46.18;100056.47;5053910;28;20053;-49
2023/04/02 02:05:22;;;;;;;4.60;1.33;;;;;;;19.73;45.94;100060.16;5054766;28;20060;-50
2023/04/02 02:07:55;;;;;;;4.82;1.38;;;;;;;19.74;46.34;100059.16;5053069;28;20045;-52
2023/04/02 02:10:25;;;;;;;3.75;1.30;;;;;;;19.74;46.42;100050.28;5053737;28;20052;-48
2023/04/02 02:12:53;;;;;;;3.33;1.48;;;;;;;19.74;46.12;100055.63;5054756;28;20495;-48
2023/04/02 02:15:23;;;;;;;5.03;1.33;;;;;;;19.73;46.16;100046.75;5054854;28;20158;-48
2023/04/02 02:17:56;;;;;;;3.25;1.50;;;;;;;19.73;46.21;100056.66;5054029;28;20053;-49
2023/04/02 02:20:26;;;;;;;4.18;1.77;;;;;;;19.73;45.98;100062.84;5053483;28;20060;-49
2023/04/02 02:22:55;;;;;;;3.90;1.10;;;;;;;19.73;45.89;100059.34;5049849;28;20049;-48
2023/04/02 02:25:34;;;;;;;4.78;1.52;;;;;;;19.72;46.14;100063.84;5031945;28;20057;-49
2023/04/02 02:28:12;;;;;;;3.65;1.55;;;;;;;19.72;46.23;100066.50;5033472;28;20056;-48
2023/04/02 02:30:47;;;;;;;4.43;1.45;;;;;;;19.72;46.35;100063.84;5034679;28;20049;-49
2023/04/02 02:33:17;;;;;;;5.15;1.65;;;;;;;19.72;46.34;100065.66;5033089;28;20049;-49
2023/04/02 02:36:35;;;;;;;3.10;1.42;;;;;;;19.73;46.49;100078.13;5034361;28;20400;-49
2023/04/02 02:39:15;;;;;;;3.60;1.67;;;;;;;19.72;46.04;100081.78;5024830;28;20503;-49
2023/04/02 02:41:51;;;;;;;;;;;;;;;19.73;46.31;100083.50;5033715;28;20049;-48
2023/04/02 02:44:34;;;;;;;4.97;1.52;;;;;;;19.72;46.17;100074.56;5033581;28;19921;-48
2023/04/02 02:47:05;;;;;;;2.35;1.10;;;;;;;19.70;46.05;100075.75;5034145;28;20049;-50
2023/04/02 02:49:38;;;;;;;3.42;1.67;;;;;;;19.70;46.03;100081.09;5033105;28;20415;-49
2023/04/02 02:52:09;;;;;;;3.13;1.25;;;;;;;19.70;46.20;100081.94;5032669;28;20076;-49
2023/04/02 02:54:51;;;;;;;5.28;1.55;;;;;;;19.69;46.15;100091.00;5033763;28;20049;-49
2023/04/02 02:57:34;;;;;;;4.13;1.67;;;;;;;19.70;46.00;100095.38;5031999;28;20053;-51
2023/04/02 03:00:05;;;;;;;6.07;1.52;;;;;;;19.69;45.96;100090.16;5033050;28;20053;-52
2023/04/02 03:02:37;;;;;;;4.03;1.58;;;;;;;19.69;45.99;100109.81;5033022;28;20399;-53
2023/04/02 03:05:07;;;;;;;3.63;1.42;;;;;;;19.69;46.09;100103.59;5032896;28;20050;-50
2023/04/02 03:07:36;;;;;;;3.60;1.38;;;;;;;19.69;45.86;100104.44;5032767;28;20053;-53
2023/04/02 03:10:24;;;;;;;2.90;1.48;;;;;;;19.69;45.85;100115.19;5032634;28;20045;-50
2023/04/02 03:13:14;;;;;;;3.15;1.35;;;;;;;19.68;46.01;100124.22;5051261;28;20049;-50
2023/04/02 03:16:19;;;;;;;3.67;1.23;;;;;;;19.68;45.99;100126.06;5052052;28;20049;-52
2023/04/02 03:18:59;;;;;;;3.15;1.10;;;;;;;19.67;46.02;100125.22;5052293;28;20049;-51
2023/04/02 03:21:37;;;;;;;4.65;1.70;;;;;;;19.68;46.00;100126.91;5052947;28;20468;-48
2023/04/02 03:24:17;;;;;;;4.35;1.65;;;;;;;19.67;46.01;100130.59;5039258;28;20407;-51
2023/04/02 03:26:56;;;;;;;3.10;1.40;;;;;;;19.67;45.87;100132.44;5046020;28;20037;-49
2023/04/02 03:29:28;;;;;;;4.85;1.42;;;;;;;19.67;45.94;100135.13;5032451;28;20069;-51
2023/04/02 03:32:05;;;;;;;3.50;1.70;;;;;;;19.66;45.96;100139.66;5032030;28;20061;-49
2023/04/02 03:34:40;;;;;;;4.95;1.52;;;;;;;19.65;45.94;100146.03;5032831;28;20049;-49
2023/04/02 03:37:24;;;;;;;3.72;1.35;;;;;;;19.66;45.96;100145.00;5032600;28;20049;-49
2023/04/02 03:40:08;;;;;;;4.22;1.75;;;;;;;19.66;45.99;100150.38;5032241;28;20061;-51
2023/04/02 03:42:48;;;;;;;2.78;1.15;;;;;;;19.66;45.89;100149.53;5031867;28;20060;-49
2023/04/02 03:45:21;;;;;;;5.80;1.80;;;;;;;19.65;45.74;100158.59;5031728;28;20045;-49
2023/04/02 03:47:51;;;;;;;3.47;1.30;;;;;;;19.66;45.88;100154.91;5033631;28;20054;-50
2023/04/02 03:50:30;;;;;;;4.97;1.35;;;;;;;19.65;46.11;100161.28;5032106;28;20460;-48
2023/04/02 03:53:02;;;;;;;4.13;1.77;;;;;;;19.65;45.94;100159.44;5032175;28;20053;-49
2023/04/02 03:55:34;;;;;;;3.25;1.40;;;;;;;19.65;45.93;100159.44;5031742;28;20054;-52
2023/04/02 03:58:25;;;;;;;2.58;1.27;;;;;;;19.65;45.94;100161.28;5048830;28;20049;-49
2023/04/02 04:00:59;;;;;;;5.40;1.73;;;;;;;19.65;46.06;100164.81;5035185;28;20050;-48
2023/04/02 04:03:44;;;;;;;6.38;1.77;;;;;;;19.65;45.89;100175.56;5053168;28;20057;-48
2023/04/02 04:06:30;;;;;;;4.35;2.08;;;;;;;19.64;45.91;100175.69;5052448;28;20056;-51
2023/04/02 04:09:06;;;;;;;3.33;1.42;;;;;;;19.65;45.88;100180.09;5051242;28;20060;-49
2023/04/02 04:11:38;;;;;;;2.97;1.55;;;;;;;19.64;45.93;100181.91;5052663;28;20053;-49
2023/04/02 04:14:17;;;;;;;3.08;1.48;;;;;;;19.63;46.00;100177.53;5031542;28;20057;-50
2023/04/02 04:16:56;;;;;;;3.75;1.52;;;;;;;19.64;46.00;100183.75;5032977;28;20116;-49
2023/04/02 04:19:37;;;;;;;3.22;1.30;;;;;;;19.64;46.33;100187.28;5032736;28;20050;-48
2023/04/02 04:22:29;;;;;;;3.05;1.50;;;;;;;19.64;46.31;100189.94;5032544;28;20124;-49
2023/04/02 04:25:05;;;;;;;3.88;1.33;;;;;;;19.64;46.29;100184.59;5031557;28;20053;-49
2023/04/02 04:27:47;;;;;;;2.92;1.40;;;;;;;19.64;46.34;100192.63;5049620;28;20045;-48
2023/04/02 04:30:26;;;;;;;2.25;1.02;;;;;;;19.65;46.34;100193.50;5050969;28;20060;-48
2023/04/02 04:33:09;;;;;;;5.07;1.63;;;;;;;19.64;46.17;100205.22;5051993;28;20068;-49
2023/04/02 04:35:44;;;;;;;3.38;1.83;;;;;;;19.65;46.26;100215.84;5051427;28;20044;-48
2023/04/02 04:38:43;;;;;;;5.13;1.67;;;;;;;19.64;46.06;100214.13;5051083;28;20520;-48
2023/04/02 04:41:21;;;;;;;4.25;1.48;;;;;;;19.63;46.11;100214.28;5050693;28;20506;-52
2023/04/02 04:43:55;;;;;;;5.32;1.80;;;;;;;19.63;46.28;100219.66;5051575;28;20499;-49
2023/04/02 04:46:29;;;;;;;4.28;1.77;;;;;;;19.64;46.21;100235.59;5051259;28;20208;-51
2023/04/02 04:49:08;;;;;;;3.25;1.58;;;;;;;19.63;46.20;100228.53;5052623;28;20052;-50
2023/04/02 04:51:49;;;;;;;4.53;1.67;;;;;;;19.62;46.27;100234.91;5051440;28;20067;-52
2023/04/02 04:54:18;;;;;;;5.57;1.35;;;;;;;19.63;46.23;100236.59;5050926;28;20060;-52
2023/04/02 04:56:59;;;;;;;3.95;1.83;;;;;;;19.63;46.15;100243.81;5053346;28;20056;-50
2023/04/02 04:59:31;;;;;;;3.72;1.70;;;;;;;19.62;46.09;100240.28;5054888;28;20072;-49
2023/04/02 05:02:06;;;;;;;3.08;1.40;;;;;;;19.62;46.13;100245.66;5055284;28;20423;-52
2023/04/02 05:04:37;;;;;;;4.68;1.83;;;;;;;19.62;46.38;100251.03;5055208;28;20064;-52
2023/04/02 05:07:24;;;;;;;7.07;2.03;;;;;;;19.61;46.14;100260.09;5055043;28;20072;-48
2023/04/02 05:10:03;;;;;;;4.32;1.42;;;;;;;19.61;46.30;100260.09;5055156;28;20056;-51
2023/04/02 05:13:00;;;;;;;3.45;1.65;;;;;;;19.61;46.36;100260.09;5054672;28;20060;-49
2023/04/02 05:15:44;;;;;;;4.30;1.63;;;;;;;19.61;46.25;100273.50;5055321;28;20434;-48
2023/04/02 05:18:35;;;;;;;3.35;1.63;;;;;;;19.60;46.24;100263.72;5055683;28;20116;-48
2023/04/02 05:21:19;;;;;;;4.45;1.60;;;;;;;19.60;46.18;100269.09;5054557;28;20071;-48
2023/04/02 05:24:19;;;;;;;5.75;2.03;;;;;;;19.61;46.17;100265.47;5054618;28;20045;-51
2023/04/02 05:26:50;;;;;;;4.80;2.42;;;;;;;19.61;46.30;100262.78;5048059;28;20527;-47
2023/04/02 05:29:24;;;;;;;4.00;1.83;;;;;;;19.60;46.33;100265.56;5047357;28;20053;-49
2023/04/02 05:32:01;;;;;;;3.92;1.67;;;;;;;19.60;46.40;100279.81;5034113;28;20053;-49
2023/04/02 05:34:34;;;;;;;3.80;1.77;;;;;;;19.60;46.27;100287.88;5034386;28;20049;-50
2023/04/02 05:37:04;;;;;;;4.15;1.50;;;;;;;19.60;46.24;100290.56;5034371;28;20064;-50
2023/04/02 05:39:34;;;;;;;3.28;1.70;;;;;;;19.60;46.27;100287.03;5033682;28;20045;-52
2023/04/02 05:42:13;;;;;;;3.53;1.67;;;;;;;19.59;46.39;100288.88;5035645;28;20392;-50
2023/04/02 05:45:02;;;;;;;3.47;2.08;;;;;;;19.59;46.33;100296.94;5034690;28;20049;-49
2023/04/02 05:47:32;;;;;;;2.97;1.52;;;;;;;19.59;46.50;100296.94;5034096;28;20522;-48
2023/04/02 05:50:08;;;;;;;3.55;1.80;;;;;;;19.60;46.46;100303.16;5033524;28;20419;-48
2023/04/02 05:52:49;;;;;;;3.33;1.88;;;;;;;19.59;46.40;100314.88;5034250;28;20057;-49
2023/04/02 05:55:16;;;;;;;4.25;1.75;;;;;;;19.59;46.51;100307.66;5035011;28;20049;-53
2023/04/02 05:57:52;;;;;;;3.78;2.15;;;;;;;19.58;46.27;100308.69;5017767;28;20492;-52
2023/04/02 06:01:06;;;;;;;5.20;2.83;;;;;;;19.58;46.32;100308.69;5034027;28;20060;-51
2023/04/02 06:03:45;;;;;;;4.07;1.90;;;;;;;19.59;46.41;100321.09;5033891;28;20504;-51
2023/04/02 06:06:28;;;;;;;4.50;2.45;;;;;;;19.58;46.62;100313.19;5034097;28;20064;-48
2023/04/02 06:09:04;;;;;;;3.83;2.20;;;;;;;19.58;46.50;100321.25;5033520;28;20046;-49
2023/04/02 06:11:41;;;;;;;5.13;2.10;;;;;;;19.57;46.39;100324.91;5034244;28;20056;-51
2023/04/02 06:14:15;;;;;;;4.13;2.38;;;;;;;19.58;46.38;100335.53;5048658;28;20056;-51
2023/04/02 06:16:45;;;;;;;4.10;2.13;;;;;;;19.57;46.45;100336.53;5053686;28;20053;-50
2023/04/02 06:19:27;;;;;;;5.18;2.47;;;;;;;19.58;46.41;100342.75;5054371;28;20379;-51
2023/04/02 06:22:06;;;;;;;5.15;2.75;;;;;;;19.56;46.61;100342.03;5054426;28;20059;-49
2023/04/02 06:24:38;;;;;;;5.93;3.22;;;;;;;19.56;46.78;100342.88;5053089;28;20044;-52
2023/04/02 06:27:11;;;;;;;5.50;3.42;;;;;;;19.56;46.83;100342.88;5053154;28;20431;-52
2023/04/02 06:29:44;;;;;;;6.45;3.47;;;;;;;19.56;47.12;100345.53;5051541;28;20033;-50
2023/04/02 06:32:19;;;;;;;5.43;3.55;;;;;;;19.56;46.92;100350.91;5053270;28;20115;-52
2023/04/02 06:34:47;;;;;;;6.47;3.60;;;;;;;19.56;47.07;100361.66;5053742;28;20049;-52
2023/04/02 06:37:32;;;;;;;5.68;4.10;;;;;;;19.56;47.13;100364.34;5053315;28;20049;-51
2023/04/02 06:40:32;;;;;;;6.30;3.78;;;;;;;19.56;47.28;100363.50;5053003;28;20518;-51
2023/04/02 06:43:16;;;;;;;6.53;4.20;;;;;;;19.56;47.31;100380.44;5053100;28;20053;-51
2023/04/02 06:46:22;;;;;;;7.70;4.43;;;;;;;19.55;47.17;100381.44;5060984;28;20060;-48
2023/04/02 06:49:24;;;;;;;7.32;4.35;;;;;;;19.55;47.43;100381.44;5053256;28;20045;-50
2023/04/02 06:52:00;;;;;;;7.43;5.40;;;;;;;19.56;47.31;100384.97;5051331;28;20055;-49
2023/04/02 06:54:30;;;;;;;5.97;4.73;;;;;;;19.56;47.57;100390.34;5052898;28;20060;-49
2023/04/02 06:57:03;;;;;;;7.55;4.82;;;;;;;19.55;47.49;100392.19;5053388;28;20049;-51
2023/04/02 06:59:34;;;;;;;9.15;6.22;;;;;;;19.56;47.82;100401.09;5054113;28;20049;-48
2023/04/02 07:02:25;;;;;;;9.93;5.95;;;;;;;19.54;47.80;100395.88;5051917;28;20055;-50
2023/04/02 07:05:00;;;;;;;7.30;5.03;;;;;;;19.55;47.83;100394.88;5053941;28;20048;-52
2023/04/02 07:07:28;;;;;;;8.50;5.15;;;;;;;19.54;47.81;100406.63;5053173;28;20056;-51
2023/04/02 07:09:56;;;;;;;7.88;5.50;;;;;;;19.56;47.79;100417.19;5051941;28;20503;-49
2023/04/02 07:12:24;;;;;;;8.80;5.32;;;;;;;19.56;48.02;100409.16;5052475;28;20053;-49
2023/04/02 07:14:52;;;;;;;8.48;5.78;;;;;;;19.55;47.84;100416.34;5052190;28;20060;-48
2023/04/02 07:17:20;;;;;;;8.10;5.45;;;;;;;19.55;47.97;100418.19;5052650;28;20068;-48
2023/04/02 07:19:48;;;;;;;8.10;5.20;;;;;;;19.55;48.04;100427.09;5052437;28;20041;-49
2023/04/02 07:22:19;;;;;;;9.20;5.65;;;;;;;19.56;48.01;100422.56;5052672;28;20059;-49
2023/04/02 07:24:51;;;;;;;7.80;5.60;;;;;;;19.56;48.21;100433.31;5032253;28;20056;-51
2023/04/02 07:27:19;;;;;;;7.97;5.30;;;;;;;19.56;48.14;100434.16;5033410;28;20041;-49
2023/04/02 07:29:46;;;;;;;8.60;6.03;;;;;;;19.55;48.24;100435.16;5032933;28;20480;-48
2023/04/02 07:32:13;;;;;;;8.07;5.50;;;;;;;19.56;48.29;100442.22;5032955;28;20388;-49
2023/04/02 07:34:41;;;;;;;8.68;6.18;;;;;;;19.56;48.66;100452.94;5033320;28;20053;-47
2023/04/02 07:37:12;;;;;;;10.23;5.28;;;;;;;19.57;48.88;100451.97;5033126;28;20056;-49
2023/04/02 07:39:40;;;;;;;13.38;10.38;;;;;;;19.57;49.40;100457.34;5033497;28;20407;-57
2023/04/02 07:42:08;;;;;;;24.35;18.33;;;;;;;19.55;50.50;100472.75;5033237;28;20050;-50
2023/04/02 07:44:35;;;;;;;26.63;19.27;;;;;;;19.50;50.65;100483.06;5039070;28;20061;-51
2023/04/02 07:47:03;;;;;;;27.40;20.60;;;;;;;19.41;50.94;100484.75;5052686;28;20060;-54
2023/04/02 07:49:30;;;;;;;27.40;20.10;;;;;;;19.35;51.36;100485.31;5046416;28;20049;-53
2023/04/02 07:51:58;;;;;;;26.88;19.83;;;;;;;19.30;51.58;100489.41;5052932;28;20111;-49
2023/04/02 07:54:26;;;;;;;24.17;18.73;;;;;;;19.26;51.22;100502.25;5052859;28;20049;-56
2023/04/02 07:56:53;;;;;;;25.52;18.58;;;;;;;19.19;51.02;100507.31;5053317;28;20048;-55
2023/04/02 07:59:20;;;;;;;27.88;19.80;;;;;;;19.14;51.24;100511.41;5052719;28;20049;-56
2023/04/02 08:01:48;;;;;;;26.98;20.48;;;;;;;19.08;51.34;100515.50;5042895;28;20046;-56
2023/04/02 08:04:21;;;;;;;26.50;20.23;;;;;;;19.02;51.28;100522.25;5033107;28;20504;-48
2023/04/02 08:06:49;;;;;;;24.90;18.08;;;;;;;18.99;51.49;100524.38;5033027;28;20049;-57
2023/04/02 08:09:16;;;;;;;22.80;17.52;;;;;;;18.96;51.55;100532.72;5032940;28;20057;-55
2023/04/02 08:11:45;;;;;;;22.95;18.75;;;;;;;18.94;51.74;100534.66;5033179;28;20050;-55
2023/04/02 08:14:13;;;;;;;24.17;18.40;;;;;;;18.91;51.94;100549.19;5042667;28;20108;-52
2023/04/02 08:16:52;;;;;;;26.35;21.42;;;;;;;18.91;51.90;100548.34;5052164;28;20479;-51
2023/04/02 08:19:21;;;;;;;30.42;22.85;;;;;;;18.87;52.11;100550.44;5053014;28;20403;-51
2023/04/02 08:21:50;;;;;;;29.27;22.52;;;;;;;18.84;52.84;100556.09;5052668;28;20391;-50
2023/04/02 08:24:19;;;;;;;30.80;23.13;;;;;;;18.81;53.24;100559.06;5036584;28;20389;-49
2023/04/02 08:26:48;;;;;;;28.73;20.00;;;;;;;18.81;53.18;100558.19;5032784;28;20490;-49
2023/04/02 08:29:16;;;;;;;24.30;20.33;;;;;;;18.83;52.96;100561.59;5032194;28;20484;-48
2023/04/02 08:31:43;;;;;;;23.58;18.05;;;;;;;18.88;52.79;100570.94;5032910;28;20041;-52
2023/04/02 08:34:10;;;;;;;22.52;18.45;;;;;;;18.95;52.53;100576.59;5036055;28;20053;-51
2023/04/02 08:36:42;;;;;;;29.38;20.90;;;;;;;18.98;52.57;100563.75;5036396;28;20049;-53
2023/04/02 08:39:10;;;;;;;28.85;21.45;;;;;;;19.03;52.42;100572.25;5036388;28;20049;-51
2023/04/02 08:41:59;;;;;;;24.85;20.63;;;;;;;19.07;52.42;100575.50;5036539;28;20041;-49
2023/04/02 08:45:01;;;;;;;28.20;20.63;;;;;;;19.11;52.23;100578.78;5036451;28;20049;-49
2023/04/02 08:47:49;;;;;;;29.95;22.48;;;;;;;19.14;52.37;100575.81;5035973;28;20041;-50
2023/04/02 08:50:33;;;;;;;25.90;20.30;;;;;;;19.16;52.24;100580.06;5035765;28;20042;-51
2023/04/02 08:53:04;;;;;;;31.25;23.73;;;;;;;19.19;52.01;100587.84;5036378;28;20050;-48
2023/04/02 08:55:46;;;;;;;23.00;17.73;;;;;;;19.20;52.06;100586.88;5036507;28;20404;-51
2023/04/02 08:58:47;;;;;;;21.33;14.75;;;;;;;19.22;51.94;100587.56;5036100;28;20484;-48
2023/04/02 09:01:20;;;;;;;23.35;16.40;;;;;;;19.25;51.77;100591.81;5035627;28;20057;-49
2023/04/02 09:03:50;;;;;;;19.80;15.15;;;;;;;19.25;51.88;100595.34;5036361;28;20403;-48
2023/04/02 09:06:20;;;;;;;19.75;14.15;;;;;;;19.28;51.77;100596.88;5036086;28;20108;-48
2023/04/02 09:08:50;;;;;;;28.17;19.10;;;;;;;19.27;51.89;100585.31;5035962;28;20049;-49
2023/04/02 09:11:22;;;;;;;31.63;23.08;;;;;;;19.27;51.72;100585.31;5036192;28;20045;-47
2023/04/02 09:13:59;;;;;;;37.47;24.27;;;;;;;19.29;52.11;100587.03;5050267;28;20049;-47
2023/04/02 09:16:39;;;;;;;38.08;24.58;;;;;;;19.27;52.23;100588.00;5055772;28;20060;-51
2023/04/02 09:19:15;;;;;;;34.25;24.67;;;;;;;19.27;52.21;100592.50;5055902;28;20049;-49
2023/04/02 09:22:12;;;;;;;28.42;19.88;;;;;;;19.26;51.92;100590.81;5055651;28;20467;-49
2023/04/02 09:24:40;;;;;;;20.75;16.65;;;;;;;19.29;51.74;100600.44;5036502;28;20503;-52
2023/04/02 09:27:22;;;;;;;23.42;17.52;;;;;;;19.29;51.69;100598.63;5034485;28;20054;-48
2023/04/02 09:29:59;;;;;;;20.00;15.80;;;;;;;19.31;51.69;100606.50;5042280;28;20069;-48
2023/04/02 09:32:36;;;;;;;22.08;17.10;;;;;;;19.31;51.53;100604.69;5035447;28;20041;-47
2023/04/02 09:35:11;;;;;;;20.65;16.92;;;;;;;19.31;51.57;100604.69;5035606;28;20052;-49
2023/04/02 09:38:18;;;;;;;21.05;16.40;;;;;;;19.33;51.59;100608.09;5035426;28;20049;-48
2023/04/02 09:40:49;;;;;;;20.77;15.63;;;;;;;19.33;51.62;100616.13;5035485;28;20056;-49
2023/04/02 09:43:25;;;;;;;19.33;14.95;;;;;;;19.35;51.56;100618.69;5034205;28;20049;-49
2023/04/02 09:46:17;;;;;;;19.20;15.23;;;;;;;19.35;51.53;100624.03;5035304;28;20049;-50
2023/04/02 09:49:00;;;;;;;21.13;14.52;;;;;;;19.35;51.60;100630.25;5035212;28;20060;-50
2023/04/02 09:51:32;;;;;;;19.20;15.75;;;;;;;19.36;51.69;100631.09;5035501;28;20060;-50
2023/04/02 09:54:02;;;;;;;23.65;16.95;;;;;;;19.37;51.52;100632.81;5035366;28;20518;-49
2023/04/02 09:56:40;;;;;;;29.17;16.95;;;;;;;19.37;51.73;100635.50;5035825;28;20056;-51
2023/04/02 09:59:20;;;;;;;24.77;16.23;;;;;;;19.40;51.81;100635.22;5035071;28;20392;-47
2023/04/02 10:01:54;;;;;;;24.98;16.00;;;;;;;19.39;51.92;100633.53;5034935;28;20045;-48
2023/04/02 10:04:43;;;;;;;21.65;14.85;;;;;;;19.38;51.84;100621.94;5035175;28;20100;-51
2023/04/02 10:07:36;;;;;;;23.65;15.18;;;;;;;19.39;51.65;100631.69;5035488;28;20050;-48
2023/04/02 10:10:16;;;;;;;21.90;15.38;;;;;;;19.38;51.81;100621.09;5034925;28;20050;-47
2023/04/02 10:12:49;;;;;;;26.02;16.17;;;;;;;19.38;51.63;100616.56;5034560;28;20046;-47
2023/04/02 10:15:22;;;;;;;20.55;16.10;;;;;;;19.38;51.74;100596.94;5052216;28;20072;-49
2023/04/02 10:18:11;;;;;;;41.85;28.23;;;;;;;19.38;53.00;100581.69;5054590;28;20049;-52
2023/04/02 10:20:41;;;;;;;30.45;21.05;;;;;;;19.36;52.73;100574.72;5049705;28;20049;-49
2023/04/02 10:23:18;;;;;;;31.30;21.30;;;;;;;19.36;52.66;100577.41;5041957;28;20045;-49
2023/04/02 10:26:00;;;;;;;26.85;18.80;;;;;;;19.37;52.48;100585.34;5046121;28;20056;-48
2023/04/02 10:29:09;;;;;;;30.17;21.45;;;;;;;19.37;52.76;100596.09;5035034;28;20060;-48
2023/04/02 10:32:03;;;;;;;23.02;17.67;;;;;;;19.38;52.60;100600.47;5041314;28;20057;-48
2023/04/02 10:34:48;;;;;;;29.38;19.70;;;;;;;19.40;53.24;100603.84;5033655;28;20050;-47
2023/04/02 10:37:34;;;;;;;24.42;18.90;;;;;;;19.42;57.37;100609.09;5034334;28;20056;-49
2023/04/02 10:40:10;;;;;;;23.77;16.95;;;;;;;19.42;58.30;100611.78;5034293;28;20041;-48
2023/04/02 10:43:14;;;;;;;23.58;18.70;;;;;;;19.41;58.55;100597.50;5034620;28;20052;-49
2023/04/02 10:45:46;;;;;;;24.65;17.45;;;;;;;19.41;58.88;100594.81;5034828;28;20060;-51
2023/04/02 10:48:19;;;;;;;23.13;18.90;;;;;;;19.41;58.82;100596.66;5037581;28;20045;-52
2023/04/02 10:51:02;;;;;;;26.35;19.73;;;;;;;19.39;58.96;100591.41;5042288;28;20091;-54
2023/04/02 10:54:20;;;;;;;26.35;20.45;;;;;;;19.37;59.31;100588.03;5054188;28;20045;-49
2023/04/02 10:56:52;;;;;;;28.90;21.65;;;;;;;19.38;60.36;100595.09;5031961;28;20050;-47
2023/04/02 10:59:31;;;;;;;27.25;20.55;;;;;;;19.36;60.46;100589.00;5033981;28;20491;-48
2023/04/02 11:02:02;;;;;;;26.25;21.45;;;;;;;19.37;60.40;100584.50;5034405;28;20045;-51
2023/04/02 11:04:40;;;;;;;26.88;19.83;;;;;;;19.35;61.07;100589.16;5034051;28;20061;-47
2023/04/02 11:07:21;;;;;;;28.80;20.02;;;;;;;19.34;61.32;100582.94;5034270;28;20053;-49
2023/04/02 11:09:52;;;;;;;27.17;20.42;;;;;;;19.35;61.31;100583.78;5033659;28;20056;-51
2023/04/02 11:12:30;;;;;;;26.42;19.58;;;;;;;19.36;61.93;100582.78;5033927;28;20053;-48
2023/04/02 11:14:58;;;;;;;25.30;19.88;;;;;;;19.36;62.20;100580.09;5033705;28;20042;-49
2023/04/02 11:17:26;;;;;;;24.70;18.48;;;;;;;19.35;61.96;100584.63;5033686;28;20049;-52
2023/04/02 11:19:53;;;;;;;20.55;17.00;;;;;;;19.35;60.65;100579.25;5034214;28;20057;-48
2023/04/02 11:22:23;;;;;;;19.85;17.65;;;;;;;19.34;60.17;100571.34;5033350;28;20046;-51
2023/04/02 11:24:53;;;;;;;25.70;17.90;;;;;;;19.32;60.26;100571.47;5033975;28;20381;-48
2023/04/02 11:27:26;;;;;;;19.98;15.80;;;;;;;19.32;60.41;100565.25;5033443;28;20046;-50
2023/04/02 11:30:21;;;;;;;19.95;16.67;;;;;;;19.31;58.47;100560.88;5033508;28;20046;-52
2023/04/02 11:32:50;;;;;;;20.88;16.75;;;;;;;19.30;58.48;100559.19;5032795;28;20484;-49
2023/04/02 11:35:24;;;;;;;21.77;16.88;;;;;;;19.29;58.36;100555.66;5032877;28;20049;-48
2023/04/02 11:37:53;;;;;;;19.52;15.70;;;;;;;19.29;56.86;100557.50;5033316;28;20052;-50
2023/04/02 11:40:43;;;;;;;19.38;15.50;;;;;;;19.27;57.47;100558.47;5033051;28;20068;-50
2023/04/02 11:43:32;;;;;;;20.00;15.25;;;;;;;19.28;59.22;100553.94;5033123;28;20045;-47
2023/04/02 11:46:00;;;;;;;18.10;14.63;;;;;;;19.26;58.45;100554.09;5033690;28;20049;-49
2023/04/02 11:48:34;;;;;;;21.92;15.30;;;;;;;19.26;58.73;100562.16;5032958;28;20058;-49
2023/04/02 11:51:34;;;;;;;19.70;14.32;;;;;;;19.26;59.14;100553.25;5033222;28;20408;-50
2023/04/02 11:54:03;;;;;;;17.90;13.60;;;;;;;19.26;59.41;100556.78;5033252;28;20052;-50
2023/04/02 11:57:00;;;;;;;19.75;14.52;;;;;;;19.25;57.80;100560.47;5033368;28;20057;-50
2023/04/02 11:59:46;;;;;;;18.33;13.07;;;;;;;19.25;58.36;100559.63;5033290;28;20524;-49
2023/04/02 12:02:27;;;;;;;15.48;12.13;;;;;;;19.24;59.26;100556.09;5033420;28;20042;-52
2023/04/02 12:04:57;;;;;;;14.30;10.18;;;;;;;19.24;57.76;100558.78;5033085;28;20046;-48
2023/04/02 12:07:45;;;;;;;13.60;10.00;;;;;;;19.24;56.88;100563.25;5035877;28;20052;-48